Observations

84.9 °F / 29.4 °C
S at 14 MPH
79%
77.9°F / 25.5 °C
29.76" (1007 mb)
10 mile(s)
partly cloudy
2020.10.27 0600 UTC

Observations

Surface


Raw METARs

2020/10/27 06:00
PKWA 270600Z AUTO 17012KT 10SM SCT120 29/26 A2976 RMK AO2 T02940255

Translated METAR

Kwajalein, Bucholz AAF, Kwajalein KMR ATOL Airport, Marshall Islands (PKWA) 08-43N 167-44E 2M
Oct 27, 2020 - 02:00 AM EDT / 2020.10.27 0600 UTC
Wind: from the S (170 degrees) at 14 MPH (12 KT):0
Visibility: 10 mile(s):0
Sky conditions: partly cloudy
Temperature: 84.9 F (29.4 C)
Dew Point: 77.9 F (25.5 C)
Relative Humidity: 79%
Pressure (altimeter): 29.76 in. Hg (1007 hPa)
ob: PKWA 270600Z AUTO 17012KT 10SM SCT120 29/26 A2976 RMK AO2 T02940255
cycle: 6



Upper Air


Latest Skew-T

Skew T Diagram

Latest Data File